Airfield :
LOGIN :

Register | Disclaimer

   EN    FR    IT 

 










Legend :    VFR   Marginal VFR   IFR   Intensive IFR   Very Intensive IFR
Visi :
Ceiling :
>= 8 km
>= 3000ft
5 to 8 km
1000 to 3000 ft
1500m to 5 km
500 to 1000 ft
800 to 1500m
200 to 500 ft
< 800m
< 200 ft
Symbols :   Thunderstorms  Fog  Heavy snow  Heavy precipitations  Wind > 20 kt
SIGMETs :     Misc.  Thunderstorms  Icing  Turbulence  Mountain Waves  Volcanic Ashes






- Airport Elevation : 400 ft
- IATA code : BNX


LQBK - Banja Luka

CURRENT METAR :
  • 070000Z 33003KT CAVOK 04/M05 Q1029 NOSIG

EXPIRED METARs :
  • 062300Z 31005KT CAVOK 04/M05 Q1029 NOSIG
  • 062200Z 30005KT CAVOK 04/M04 Q1029 NOSIG

TAF TAF LQBK
Valid from the 07 at 00:00 until the 08 at 00:00 UTC


062300Z 0700/0724 03005KT CAVOK TX19/0714Z TN02/0706Z
TEMPO 0712/0720 09010KT
PROB30
TEMPO 0713/0717 10015G25KT



MET'MAP, your aeronautical weather chart ! - Copyright ORBIFLY December 2007 - Disclaimer

ORBIFLY MET'MAP TEAM :

Programming & Development : Alexandra Zaïnal
Concept & original design : Baudouin d'Aumeries
Assistance for programming : Marc-Olivier Méhu
Technical & hardware support : Manuel Goepfert

Contact : metmap@orbifly.com




SOURCES & CREDITS :

   NOAA